Hamilton Square, New Jersey
Current Conditions -  °F | °C
As of 8:35 AM on Wednesday 22 Oct 2014 (Local Time) from KTTN Reporting Station
Light Rain Light Rain  
Wind Chill: 55°   Ceiling: 800
Heat Index: 55°   Visibility: 7mi
Dew Point: 52°   Wind: 12mph
Humidity: 89%   Direction: 20°NNE
Pressure: 29.9"   Gusts: NA
Location:  40.2318°N, 74.6526°W
Report Text: KTTN 221235Z 02010KT 7SM -RA BKN008 BKN017 OVC065 13/11 A2990 RMK AO2 P0005 T01280111
Loading
Personal Weather Stations






























Interactive Weather Map
Tropical Storm Tracking
New forecast layout! Learn more

10-Day Weather Forecast

Advertisements
Track Severe Weather on mobile